createdAt,value
2023-01-21T00:00:52.425Z,-0.10
2023-01-21T00:03:27.652Z,-0.10
2023-01-21T00:05:58.404Z,-0.10
2023-01-21T00:08:36.604Z,-0.10
2023-01-21T00:11:13.851Z,-0.10
2023-01-21T00:13:49.550Z,-0.10
2023-01-21T00:16:18.138Z,-0.10
2023-01-21T00:18:54.690Z,0.00
2023-01-21T00:21:24.229Z,-0.10
2023-01-21T00:24:00.543Z,-0.20
2023-01-21T00:26:28.975Z,0.00
2023-01-21T00:29:03.841Z,-0.10
2023-01-21T00:31:32.791Z,-0.20
2023-01-21T00:34:07.534Z,-0.20
2023-01-21T00:36:36.248Z,-0.20
2023-01-21T00:39:12.579Z,-0.20
2023-01-21T00:41:41.059Z,-0.20
2023-01-21T00:44:15.909Z,-0.20
2023-01-21T00:46:44.826Z,-0.30
2023-01-21T00:49:19.718Z,-0.30
2023-01-21T00:52:01.585Z,-0.30
2023-01-21T00:54:32.710Z,-0.30
2023-01-21T00:57:07.720Z,-0.30
2023-01-21T00:59:36.257Z,-0.30
2023-01-21T01:02:11.615Z,-0.30
2023-01-21T01:04:40.108Z,-0.20
2023-01-21T01:07:15.635Z,-0.30
2023-01-21T01:09:46.037Z,-0.40
2023-01-21T01:12:20.733Z,-0.40
2023-01-21T01:14:49.275Z,-0.40
2023-01-21T01:17:24.976Z,-0.20
2023-01-21T01:19:53.867Z,-0.40
2023-01-21T01:22:29.510Z,-0.40
2023-01-21T01:24:59.651Z,-0.50
2023-01-21T01:27:34.628Z,-0.50
2023-01-21T01:30:03.289Z,-0.50
2023-01-21T01:32:38.638Z,-0.40
2023-01-21T01:35:08.302Z,-0.30
2023-01-21T01:37:43.648Z,-0.50
2023-01-21T01:40:15.851Z,-0.50
2023-01-21T01:42:50.734Z,-0.50
2023-01-21T01:45:21.814Z,-0.50
2023-01-21T01:48:04.639Z,-0.50
2023-01-21T01:50:44.567Z,-0.40
2023-01-21T01:53:21.758Z,-0.40
2023-01-21T01:55:52.191Z,-0.40
2023-01-21T01:58:28.947Z,-0.50
2023-01-21T02:00:57.974Z,-0.60
2023-01-21T02:03:57.643Z,-0.60
2023-01-21T02:06:27.780Z,-0.60
2023-01-21T02:09:03.801Z,-0.60
2023-01-21T02:11:33.937Z,-0.60
2023-01-21T02:14:08.767Z,-0.60
2023-01-21T02:17:13.282Z,-0.70
2023-01-21T02:20:23.777Z,-0.70
2023-01-21T02:23:00.806Z,-0.70
2023-01-21T02:26:08.666Z,-0.70
2023-01-21T02:29:10.610Z,-0.70
2023-01-21T02:32:15.679Z,-0.70
2023-01-21T02:34:53.936Z,-0.70
2023-01-21T02:37:37.759Z,-0.70
2023-01-21T02:40:15.096Z,-0.80
2023-01-21T02:42:54.819Z,-0.80
2023-01-21T02:45:28.695Z,-0.70
2023-01-21T02:48:12.673Z,-0.80
2023-01-21T02:50:57.853Z,-0.80
2023-01-21T02:53:28.159Z,-0.80
2023-01-21T02:56:05.810Z,-0.80
2023-01-21T02:58:36.629Z,-0.70
2023-01-21T03:01:21.704Z,-0.90
2023-01-21T03:04:23.911Z,-0.90
2023-01-21T03:07:11.720Z,-0.90
2023-01-21T03:09:40.626Z,-0.90
2023-01-21T03:12:34.814Z,-0.90
2023-01-21T03:15:23.952Z,-0.90
2023-01-21T03:18:04.367Z,-0.70
2023-01-21T03:20:37.381Z,-0.70
2023-01-21T03:23:18.746Z,-1.00
2023-01-21T03:26:03.317Z,-0.90
2023-01-21T03:28:51.700Z,-1.00
2023-01-21T03:31:25.343Z,-0.80
2023-01-21T03:34:03.726Z,-0.90
2023-01-21T03:36:39.427Z,-1.00
2023-01-21T03:39:22.839Z,-1.00
2023-01-21T03:41:51.405Z,-1.00
2023-01-21T03:44:26.695Z,-1.10
2023-01-21T03:47:04.758Z,-1.10
2023-01-21T03:49:43.764Z,-1.10
2023-01-21T03:52:15.441Z,-1.10
2023-01-21T03:54:54.953Z,-1.10
2023-01-21T03:57:23.524Z,-1.20
2023-01-21T03:59:58.978Z,-1.20
2023-01-21T04:02:27.727Z,-1.20
2023-01-21T04:05:02.886Z,-1.20
2023-01-21T04:07:31.609Z,-1.20
2023-01-21T04:10:07.776Z,-1.20
2023-01-21T04:12:36.365Z,-1.30
2023-01-21T04:15:11.849Z,-1.10
2023-01-21T04:17:40.350Z,-1.30
2023-01-21T04:20:17.955Z,-1.30
2023-01-21T04:22:46.808Z,-1.30
2023-01-21T04:25:23.749Z,-1.30
2023-01-21T04:27:52.630Z,-1.30
2023-01-21T04:30:28.777Z,-1.30
2023-01-21T04:32:58.336Z,-1.30
2023-01-21T04:35:33.894Z,-1.40
2023-01-21T04:38:02.696Z,-1.40
2023-01-21T04:40:38.720Z,-1.30
2023-01-21T04:43:07.149Z,-1.30
2023-01-21T04:45:42.928Z,-1.40
2023-01-21T04:48:11.524Z,-1.40
2023-01-21T04:50:55.972Z,-1.40
2023-01-21T04:53:24.373Z,-1.50
2023-01-21T04:56:01.736Z,-1.40
2023-01-21T04:58:30.718Z,-1.40
2023-01-21T05:01:05.833Z,-1.50
2023-01-21T05:03:35.428Z,-1.50
2023-01-21T05:06:10.037Z,-1.50
2023-01-21T05:08:38.584Z,-1.50
2023-01-21T05:11:18.814Z,-1.40
2023-01-21T05:13:47.967Z,-1.30
2023-01-21T05:16:24.048Z,-1.50
2023-01-21T05:18:52.860Z,-1.50
2023-01-21T05:21:29.216Z,-1.60
2023-01-21T05:23:57.776Z,-1.50
2023-01-21T05:26:34.762Z,-1.50
2023-01-21T05:29:02.979Z,-1.40
2023-01-21T05:31:38.010Z,-1.60
2023-01-21T05:34:12.940Z,-1.60
2023-01-21T05:36:41.526Z,-1.60
2023-01-21T05:39:16.757Z,-1.60
2023-01-21T05:41:46.978Z,-1.60
2023-01-21T05:44:21.828Z,-1.60
2023-01-21T05:46:50.278Z,-1.60
2023-01-21T05:49:31.771Z,-1.70
2023-01-21T05:52:07.625Z,-1.60
2023-01-21T05:54:59.987Z,-1.70
2023-01-21T05:57:31.501Z,-1.70
2023-01-21T06:00:06.985Z,-1.70
2023-01-21T06:02:35.782Z,-1.80
2023-01-21T06:05:10.792Z,-1.70
2023-01-21T06:07:39.326Z,-1.80
2023-01-21T06:10:16.123Z,-1.80
2023-01-21T06:12:46.739Z,-1.80
2023-01-21T06:15:22.863Z,-1.80
2023-01-21T06:17:51.439Z,-1.80
2023-01-21T06:20:26.994Z,-1.70
2023-01-21T06:22:55.463Z,-1.80
2023-01-21T06:25:31.018Z,-1.70
2023-01-21T06:28:01.481Z,-1.70
2023-01-21T06:30:37.059Z,-1.80
2023-01-21T06:33:05.879Z,-1.80
2023-01-21T06:35:42.911Z,-1.90
2023-01-21T06:38:11.255Z,-1.90
2023-01-21T06:40:47.871Z,-1.90
2023-01-21T06:43:17.706Z,-1.90
2023-01-21T06:45:53.990Z,-1.90
2023-01-21T06:48:23.582Z,-1.70
2023-01-21T06:51:08.894Z,-1.90
2023-01-21T06:53:37.285Z,-1.90
2023-01-21T06:56:13.140Z,-1.90
2023-01-21T06:58:43.118Z,-1.80
2023-01-21T07:01:17.923Z,-1.70
2023-01-21T07:03:46.367Z,-1.80
2023-01-21T07:06:21.089Z,-1.80
2023-01-21T07:08:49.604Z,-1.90
2023-01-21T07:11:26.071Z,-1.70
2023-01-21T07:13:56.075Z,-1.90
2023-01-21T07:16:31.581Z,-1.90
2023-01-21T07:19:00.512Z,-1.90
2023-01-21T07:21:35.976Z,-1.70
2023-01-21T07:24:04.755Z,-1.90
2023-01-21T07:26:42.871Z,-1.90
2023-01-21T07:29:12.945Z,-1.90
2023-01-21T07:31:48.085Z,-2.00
2023-01-21T07:34:16.834Z,-1.90
2023-01-21T07:36:52.122Z,-1.90
2023-01-21T07:39:20.553Z,-2.00
2023-01-21T07:41:55.940Z,-2.00
2023-01-21T07:44:26.039Z,-2.00
2023-01-21T07:47:01.146Z,-2.00
2023-01-21T07:49:36.433Z,-2.00
2023-01-21T07:52:17.948Z,-1.90
2023-01-21T07:54:46.812Z,-2.00
2023-01-21T07:57:23.216Z,-1.90
2023-01-21T07:59:53.536Z,-2.10
2023-01-21T08:02:29.032Z,-2.00
2023-01-21T08:04:57.674Z,-2.00
2023-01-21T08:07:33.128Z,-2.00
2023-01-21T08:10:01.978Z,-2.00
2023-01-21T08:12:36.898Z,-2.00
2023-01-21T08:15:08.842Z,-2.00
2023-01-21T08:17:46.913Z,-2.00
2023-01-21T08:20:15.792Z,-2.00
2023-01-21T08:22:50.958Z,-2.00
2023-01-21T08:25:19.804Z,-2.00
2023-01-21T08:27:54.980Z,-2.00
2023-01-21T08:30:25.371Z,-2.00
2023-01-21T08:33:01.107Z,-2.00
2023-01-21T08:35:36.112Z,-2.10
2023-01-21T08:38:11.685Z,-2.00
2023-01-21T08:40:46.903Z,-2.00
2023-01-21T08:43:15.384Z,-1.80
2023-01-21T08:45:52.151Z,-2.00
2023-01-21T08:48:20.794Z,-2.00
2023-01-21T08:51:02.013Z,-2.00
2023-01-21T08:53:37.347Z,-2.00
2023-01-21T08:56:15.000Z,-2.00
2023-01-21T08:58:43.314Z,-1.90
2023-01-21T09:01:24.008Z,-1.90
2023-01-21T09:03:56.750Z,-1.90
2023-01-21T09:06:33.092Z,-1.90
2023-01-21T09:09:01.933Z,-1.90
2023-01-21T09:11:38.095Z,-1.80
2023-01-21T09:14:08.150Z,-1.80
2023-01-21T09:16:45.208Z,-1.70
2023-01-21T09:19:13.466Z,-1.70
2023-01-21T09:21:49.135Z,-1.70
2023-01-21T09:24:19.461Z,-1.60
2023-01-21T09:26:54.979Z,-1.50
2023-01-21T09:29:23.743Z,-1.60
2023-01-21T09:32:00.215Z,-1.50
2023-01-21T09:34:32.938Z,-1.30
2023-01-21T09:37:10.039Z,-1.40
2023-01-21T09:39:38.549Z,-1.40
2023-01-21T09:42:13.995Z,-1.40
2023-01-21T09:44:47.378Z,-1.30
2023-01-21T09:47:30.167Z,-1.30
2023-01-21T09:50:09.129Z,-1.20
2023-01-21T09:52:53.029Z,-1.20
2023-01-21T09:55:27.113Z,-1.20
2023-01-21T09:58:21.992Z,-1.10
2023-01-21T10:00:56.714Z,-1.10
2023-01-21T10:03:41.306Z,-1.00
2023-01-21T10:06:20.633Z,-1.00
2023-01-21T10:09:19.184Z,-1.00
2023-01-21T10:12:04.302Z,-0.90
2023-01-21T10:15:04.350Z,-0.90
2023-01-21T10:17:44.914Z,-0.90
2023-01-21T10:20:35.699Z,-0.70
2023-01-21T10:23:16.657Z,-0.80
2023-01-21T10:25:55.362Z,-0.80
2023-01-21T10:28:27.040Z,-0.70
2023-01-21T10:31:05.075Z,-0.70
2023-01-21T10:33:35.561Z,-0.70
2023-01-21T10:36:49.039Z,-0.60
2023-01-21T10:39:30.767Z,-0.60
2023-01-21T10:42:28.002Z,-0.50
2023-01-21T10:45:11.048Z,-0.50
2023-01-21T10:47:47.030Z,-0.40
2023-01-21T10:50:50.096Z,-0.40
2023-01-21T10:53:25.662Z,-0.40
2023-01-21T10:56:14.215Z,-0.30
2023-01-21T10:58:49.637Z,-0.30
2023-01-21T11:01:29.342Z,-0.30
2023-01-21T11:04:02.185Z,-0.30
2023-01-21T11:06:40.084Z,-0.30
2023-01-21T11:09:15.758Z,-0.30
2023-01-21T11:11:53.220Z,-0.30
2023-01-21T11:14:24.745Z,-0.20
2023-01-21T11:17:01.202Z,-0.40
2023-01-21T11:19:31.842Z,-0.40
2023-01-21T11:22:11.423Z,-0.10
2023-01-21T11:24:45.071Z,-0.40
2023-01-21T11:27:36.156Z,-0.40
2023-01-21T11:30:16.634Z,-0.50
2023-01-21T11:32:56.238Z,-0.40
2023-01-21T11:35:25.330Z,-0.50
2023-01-21T11:38:00.250Z,-0.50
2023-01-21T11:40:29.048Z,-0.50
2023-01-21T11:43:06.500Z,-0.50
2023-01-21T11:45:37.034Z,-0.50
2023-01-21T11:48:24.285Z,-0.50
2023-01-21T11:51:23.135Z,-0.50
2023-01-21T11:54:16.126Z,-0.50
2023-01-21T11:56:56.564Z,-0.50
2023-01-21T11:59:40.261Z,-0.50
2023-01-21T12:02:14.600Z,-0.50
2023-01-21T12:04:53.273Z,-0.50
2023-01-21T12:07:23.995Z,-0.50
2023-01-21T12:10:03.148Z,-0.60
2023-01-21T12:12:48.251Z,-0.60
2023-01-21T12:15:38.268Z,-0.50
2023-01-21T12:18:17.890Z,-0.50
2023-01-21T12:21:00.168Z,-0.60
2023-01-21T12:23:52.732Z,-0.50
2023-01-21T12:26:43.169Z,-0.60
2023-01-21T12:29:50.300Z,-0.60
2023-01-21T12:32:25.254Z,-0.60
2023-01-21T12:35:05.269Z,-0.50
2023-01-21T12:37:41.329Z,-0.50
2023-01-21T12:40:25.291Z,-0.40
2023-01-21T12:42:57.253Z,-0.40
2023-01-21T12:45:37.287Z,-0.40
2023-01-21T12:48:15.316Z,-0.30
2023-01-21T12:51:01.234Z,-0.30
2023-01-21T12:53:37.505Z,-0.30
2023-01-21T12:56:30.196Z,-0.30
2023-01-21T12:59:02.208Z,-0.20
2023-01-21T13:01:48.329Z,0.00
2023-01-21T13:04:34.784Z,-0.20
2023-01-21T13:07:15.313Z,-0.10
2023-01-21T13:09:50.937Z,-0.10
2023-01-21T13:12:28.215Z,0.00
2023-01-21T13:15:03.297Z,-0.10
2023-01-21T13:17:41.207Z,0.00
2023-01-21T13:20:21.237Z,0.00
2023-01-21T13:23:07.226Z,0.00
2023-01-21T13:25:44.241Z,0.10
2023-01-21T13:28:28.399Z,0.00
2023-01-21T13:31:03.152Z,0.10
2023-01-21T13:33:49.347Z,0.10
2023-01-21T13:36:53.252Z,0.10
2023-01-21T13:39:36.351Z,0.10
2023-01-21T13:42:26.588Z,0.10
2023-01-21T13:45:12.341Z,0.10
2023-01-21T13:48:07.865Z,0.10
2023-01-21T13:51:25.586Z,0.20
2023-01-21T13:54:21.036Z,0.10
2023-01-21T13:57:12.359Z,0.20
2023-01-21T13:59:47.463Z,0.20
2023-01-21T14:02:26.447Z,0.20
2023-01-21T14:05:00.975Z,0.20
2023-01-21T14:07:40.209Z,0.20
2023-01-21T14:10:15.786Z,0.20
2023-01-21T14:13:31.207Z,0.20
2023-01-21T14:16:19.404Z,0.30
2023-01-21T14:19:09.226Z,0.30
2023-01-21T14:22:02.472Z,0.20
2023-01-21T14:25:02.386Z,0.20
2023-01-21T14:27:53.207Z,0.20
2023-01-21T14:30:33.401Z,0.20
2023-01-21T14:33:09.118Z,0.20
2023-01-21T14:35:51.388Z,0.30
2023-01-21T14:38:27.281Z,0.30
2023-01-21T14:41:15.249Z,0.30
2023-01-21T14:43:53.588Z,0.30
2023-01-21T14:46:39.290Z,0.50
2023-01-21T14:49:09.372Z,0.30
2023-01-21T14:51:56.390Z,0.30
2023-01-21T14:54:35.255Z,0.30
2023-01-21T14:57:18.737Z,0.30
2023-01-21T14:59:50.571Z,0.30
2023-01-21T15:02:37.469Z,0.30
2023-01-21T15:05:19.080Z,0.30
2023-01-21T15:07:57.500Z,0.40
2023-01-21T15:10:32.144Z,0.40
2023-01-21T15:13:11.848Z,0.40
2023-01-21T15:16:08.521Z,0.40
2023-01-21T15:18:47.303Z,0.40
2023-01-21T15:21:36.735Z,0.30
2023-01-21T15:24:31.522Z,0.30
2023-01-21T15:27:18.451Z,0.40
2023-01-21T15:30:15.573Z,0.30
2023-01-21T15:32:51.372Z,0.30
2023-01-21T15:35:32.500Z,0.30
2023-01-21T15:38:04.151Z,0.30
2023-01-21T15:40:47.498Z,0.30
2023-01-21T15:43:21.769Z,0.30
2023-01-21T15:46:03.398Z,0.30
2023-01-21T15:48:56.187Z,0.40
2023-01-21T15:51:45.362Z,0.30
2023-01-21T15:54:25.613Z,0.20
2023-01-21T15:57:23.631Z,0.20
2023-01-21T16:00:05.942Z,0.20
2023-01-21T16:02:45.484Z,0.00
2023-01-21T16:05:26.661Z,0.00
2023-01-21T16:08:12.371Z,-0.10
2023-01-21T16:10:52.406Z,-0.10
2023-01-21T16:13:37.977Z,-0.10
2023-01-21T16:16:23.587Z,-0.20
2023-01-21T16:19:02.340Z,-0.20
2023-01-21T16:21:35.615Z,-0.20
2023-01-21T16:24:14.483Z,-0.20
2023-01-21T16:26:43.030Z,-0.30
2023-01-21T16:29:19.423Z,-0.30
2023-01-21T16:31:52.964Z,-0.30
2023-01-21T16:34:48.532Z,-0.40
2023-01-21T16:37:20.274Z,-0.40
2023-01-21T16:39:56.445Z,-0.40
2023-01-21T16:42:28.265Z,-0.40
2023-01-21T16:45:03.327Z,-0.40
2023-01-21T16:47:35.603Z,-0.40
2023-01-21T16:50:12.495Z,-0.40
2023-01-21T16:52:50.272Z,-0.40
2023-01-21T16:55:29.474Z,-0.40
2023-01-21T16:57:59.581Z,-0.40
2023-01-21T17:00:37.395Z,-0.40
2023-01-21T17:03:07.408Z,-0.40
2023-01-21T17:05:45.291Z,-0.40
2023-01-21T17:08:17.215Z,-0.40
2023-01-21T17:11:04.371Z,-0.40
2023-01-21T17:13:33.380Z,-0.30
2023-01-21T17:16:10.445Z,-0.40
2023-01-21T17:18:41.737Z,-0.20
2023-01-21T17:21:18.403Z,-0.40
2023-01-21T17:23:51.912Z,-0.30
2023-01-21T17:26:31.509Z,-0.30
2023-01-21T17:29:17.439Z,-0.30
2023-01-21T17:31:46.963Z,-0.30
2023-01-21T17:34:30.418Z,-0.30
2023-01-21T17:37:00.772Z,-0.30
2023-01-21T17:40:20.428Z,-0.30
2023-01-21T17:42:50.181Z,-0.30
2023-01-21T17:45:29.431Z,-0.30
2023-01-21T17:48:14.965Z,-0.30
2023-01-21T17:50:54.430Z,-0.10
2023-01-21T17:53:46.204Z,-0.20
2023-01-21T17:56:31.011Z,-0.20
2023-01-21T17:59:09.557Z,-0.20
2023-01-21T18:01:38.483Z,-0.10
2023-01-21T18:04:13.523Z,-0.20
2023-01-21T18:06:42.338Z,-0.20
2023-01-21T18:09:28.592Z,-0.20
2023-01-21T18:11:59.223Z,-0.20
2023-01-21T18:14:35.411Z,-0.20
2023-01-21T18:17:04.641Z,-0.10
2023-01-21T18:19:41.441Z,-0.20
2023-01-21T18:22:25.337Z,-0.10
2023-01-21T18:25:00.416Z,-0.10
2023-01-21T18:27:29.202Z,-0.10
2023-01-21T18:30:08.537Z,-0.10
2023-01-21T18:32:38.172Z,-0.10
2023-01-21T18:35:14.429Z,-0.10
2023-01-21T18:37:43.790Z,-0.10
2023-01-21T18:40:24.489Z,-0.10
2023-01-21T18:43:02.595Z,-0.10
2023-01-21T18:45:33.190Z,-0.10
2023-01-21T18:48:08.603Z,-0.10
2023-01-21T18:50:57.650Z,-0.10
2023-01-21T18:53:33.586Z,0.00
2023-01-21T18:56:02.384Z,-0.10
2023-01-21T18:58:37.477Z,0.00
2023-01-21T19:01:22.091Z,0.00
2023-01-21T19:04:01.463Z,0.00
2023-01-21T19:06:30.523Z,0.00
2023-01-21T19:09:05.509Z,0.00
2023-01-21T19:11:34.189Z,0.00
2023-01-21T19:14:10.775Z,0.00
2023-01-21T19:16:42.125Z,0.00
2023-01-21T19:19:21.464Z,0.00
2023-01-21T19:21:50.132Z,0.00
2023-01-21T19:24:24.498Z,0.00
2023-01-21T19:27:00.876Z,0.00
2023-01-21T19:29:35.658Z,0.00
2023-01-21T19:32:05.670Z,0.00
2023-01-21T19:34:41.511Z,0.00
2023-01-21T19:37:13.673Z,0.00
2023-01-21T19:39:48.631Z,0.00
2023-01-21T19:42:18.109Z,0.00
2023-01-21T19:44:53.531Z,-0.10
2023-01-21T19:47:29.750Z,0.00
2023-01-21T19:50:05.645Z,0.00
2023-01-21T19:52:47.977Z,-0.20
2023-01-21T19:55:23.672Z,-0.30
2023-01-21T19:57:57.406Z,-0.30
2023-01-21T20:00:34.709Z,-0.30
2023-01-21T20:03:05.036Z,-0.30
2023-01-21T20:05:40.536Z,-0.30
2023-01-21T20:08:13.184Z,-0.30
2023-01-21T20:10:48.529Z,-0.30
2023-01-21T20:13:17.896Z,-0.30
2023-01-21T20:15:54.598Z,-0.30
2023-01-21T20:18:26.878Z,-0.30
2023-01-21T20:21:02.535Z,-0.30
2023-01-21T20:23:32.755Z,-0.10
2023-01-21T20:26:08.517Z,-0.30
2023-01-21T20:28:39.976Z,-0.30
2023-01-21T20:31:18.647Z,-0.30
2023-01-21T20:33:49.682Z,-0.30
2023-01-21T20:36:27.567Z,-0.20
2023-01-21T20:38:56.903Z,-0.30
2023-01-21T20:41:31.554Z,-0.30
2023-01-21T20:44:03.840Z,-0.30
2023-01-21T20:46:39.542Z,-0.30
2023-01-21T20:49:12.811Z,-0.30
2023-01-21T20:51:47.593Z,-0.30
2023-01-21T20:54:24.906Z,-0.30
2023-01-21T20:56:59.685Z,-0.30
2023-01-21T20:59:30.671Z,-0.20
2023-01-21T21:02:05.751Z,-0.20
2023-01-21T21:04:35.834Z,-0.20
2023-01-21T21:07:10.618Z,-0.20
2023-01-21T21:09:39.907Z,-0.10
2023-01-21T21:12:17.653Z,-0.10
2023-01-21T21:14:45.895Z,-0.20
2023-01-21T21:17:20.721Z,-0.20
2023-01-21T21:19:50.741Z,-0.20
2023-01-21T21:22:25.704Z,-0.20
2023-01-21T21:24:54.921Z,-0.20
2023-01-21T21:27:29.602Z,-0.20
2023-01-21T21:30:00.204Z,-0.20
2023-01-21T21:32:35.855Z,-0.20
2023-01-21T21:35:07.106Z,-0.20
2023-01-21T21:37:42.618Z,-0.10
2023-01-21T21:40:12.414Z,0.10
2023-01-21T21:43:09.651Z,-0.10
2023-01-21T21:45:41.008Z,-0.10
2023-01-21T21:48:39.871Z,-0.10
2023-01-21T21:51:28.151Z,-0.10
2023-01-21T21:54:09.612Z,-0.10
2023-01-21T21:56:45.800Z,-0.10
2023-01-21T21:59:15.817Z,-0.10
2023-01-21T22:01:51.621Z,-0.10
2023-01-21T22:04:21.679Z,-0.10
2023-01-21T22:06:58.599Z,-0.10
2023-01-21T22:09:27.086Z,-0.10
2023-01-21T22:12:02.590Z,0.00
2023-01-21T22:14:30.870Z,-0.10
2023-01-21T22:17:07.753Z,-0.20
2023-01-21T22:19:37.779Z,-0.20
2023-01-21T22:22:14.749Z,-0.20
2023-01-21T22:24:44.835Z,-0.20
2023-01-21T22:27:20.655Z,-0.30
2023-01-21T22:29:49.454Z,-0.30
2023-01-21T22:32:24.774Z,-0.30
2023-01-21T22:34:53.315Z,-0.30
2023-01-21T22:37:30.657Z,-0.30
2023-01-21T22:39:59.614Z,-0.30
2023-01-21T22:42:34.768Z,-0.30
2023-01-21T22:45:03.341Z,-0.30
2023-01-21T22:47:38.577Z,-0.30
2023-01-21T22:50:08.311Z,-0.10
2023-01-21T22:52:51.779Z,-0.30
2023-01-21T22:55:26.668Z,-0.30
2023-01-21T22:58:02.606Z,-0.30
2023-01-21T23:00:38.041Z,-0.30
2023-01-21T23:03:15.708Z,-0.30
2023-01-21T23:05:44.492Z,-0.30
2023-01-21T23:08:22.121Z,-0.40
2023-01-21T23:10:50.348Z,-0.50
2023-01-21T23:13:25.776Z,-0.50
2023-01-21T23:15:54.463Z,-0.50
2023-01-21T23:18:29.636Z,-0.60
2023-01-21T23:20:58.667Z,-0.60
2023-01-21T23:23:35.817Z,-0.60
2023-01-21T23:26:05.114Z,-0.60
2023-01-21T23:28:41.822Z,-0.50
2023-01-21T23:31:14.296Z,-0.50
2023-01-21T23:33:49.765Z,-0.60
2023-01-21T23:36:18.582Z,-0.60
2023-01-21T23:38:55.702Z,-0.60
2023-01-21T23:41:24.219Z,-0.60
2023-01-21T23:43:59.887Z,-0.50
2023-01-21T23:46:28.909Z,-0.60
2023-01-21T23:49:03.865Z,-0.60
2023-01-21T23:51:40.113Z,-0.60
2023-01-21T23:54:19.037Z,-0.60
2023-01-21T23:56:48.419Z,-0.60
2023-01-21T23:59:23.703Z,-0.70
